createdAt,value
2023-01-07T00:01:05.439Z,27.57
2023-01-07T00:03:36.887Z,27.58
2023-01-07T00:06:09.514Z,27.61
2023-01-07T00:08:41.155Z,27.61
2023-01-07T00:11:13.250Z,27.66
2023-01-07T00:13:44.574Z,27.67
2023-01-07T00:16:17.055Z,27.70
2023-01-07T00:18:48.802Z,27.40
2023-01-07T00:21:20.347Z,27.56
2023-01-07T00:23:55.367Z,27.56
2023-01-07T00:26:27.741Z,27.59
2023-01-07T00:28:59.360Z,27.63
2023-01-07T00:31:31.835Z,27.63
2023-01-07T00:34:03.172Z,27.69
2023-01-07T00:36:35.126Z,27.68
2023-01-07T00:39:11.803Z,27.73
2023-01-07T00:41:42.704Z,27.75
2023-01-07T00:44:13.400Z,27.73
2023-01-07T00:46:44.094Z,27.82
2023-01-07T00:49:14.907Z,27.82
2023-01-07T00:51:49.256Z,27.83
2023-01-07T00:54:20.258Z,27.84
2023-01-07T00:56:51.434Z,27.84
2023-01-07T00:59:22.318Z,27.87
2023-01-07T01:01:54.281Z,27.84
2023-01-07T01:04:25.069Z,27.89
2023-01-07T01:06:56.000Z,27.91
2023-01-07T01:09:27.897Z,28.11
2023-01-07T01:11:58.540Z,28.13
2023-01-07T01:14:29.345Z,28.15
2023-01-07T01:16:59.924Z,28.15
2023-01-07T01:19:30.899Z,28.13
2023-01-07T01:22:01.588Z,28.13
2023-01-07T01:24:32.903Z,28.03
2023-01-07T01:27:03.588Z,27.94
2023-01-07T01:29:34.360Z,27.92
2023-01-07T01:32:05.198Z,27.91
2023-01-07T01:34:36.647Z,27.93
2023-01-07T01:37:07.600Z,27.93
2023-01-07T01:39:39.254Z,27.96
2023-01-07T01:42:13.597Z,27.95
2023-01-07T01:44:52.518Z,27.98
2023-01-07T01:47:39.020Z,27.99
2023-01-07T01:50:24.407Z,28.01
2023-01-07T01:53:00.732Z,28.03
2023-01-07T01:55:44.944Z,28.06
2023-01-07T01:58:19.075Z,28.07
2023-01-07T02:00:51.146Z,28.11
2023-01-07T02:03:24.865Z,28.13
2023-01-07T02:05:55.678Z,28.15
2023-01-07T02:08:26.748Z,28.16
2023-01-07T02:11:18.626Z,28.18
2023-01-07T02:13:49.331Z,28.19
2023-01-07T02:16:46.160Z,28.17
2023-01-07T02:19:37.501Z,28.21
2023-01-07T02:22:16.515Z,28.23
2023-01-07T02:24:47.250Z,28.24
2023-01-07T02:27:29.741Z,28.25
2023-01-07T02:30:18.882Z,28.25
2023-01-07T02:32:56.348Z,28.25
2023-01-07T02:35:50.673Z,28.27
2023-01-07T02:38:30.565Z,28.28
2023-01-07T02:41:01.294Z,28.30
2023-01-07T02:43:50.501Z,28.31
2023-01-07T02:46:24.309Z,28.33
2023-01-07T02:48:55.285Z,28.33
2023-01-07T02:51:33.745Z,28.36
2023-01-07T02:54:05.869Z,28.38
2023-01-07T02:56:43.072Z,28.38
2023-01-07T02:59:22.360Z,28.40
2023-01-07T03:02:11.526Z,28.42
2023-01-07T03:04:42.345Z,28.44
2023-01-07T03:07:28.165Z,28.45
2023-01-07T03:10:15.323Z,28.46
2023-01-07T03:13:15.278Z,28.48
2023-01-07T03:15:53.424Z,28.48
2023-01-07T03:18:32.507Z,28.52
2023-01-07T03:21:05.403Z,28.54
2023-01-07T03:23:38.213Z,28.57
2023-01-07T03:26:10.144Z,28.60
2023-01-07T03:28:44.476Z,28.61
2023-01-07T03:31:16.595Z,28.62
2023-01-07T03:33:50.599Z,28.64
2023-01-07T03:36:24.845Z,28.67
2023-01-07T03:38:58.783Z,28.70
2023-01-07T03:41:52.496Z,28.71
2023-01-07T03:44:23.212Z,28.75
2023-01-07T03:46:54.426Z,28.78
2023-01-07T03:49:25.331Z,28.78
2023-01-07T03:51:56.531Z,28.80
2023-01-07T03:54:28.651Z,28.83
2023-01-07T03:56:59.766Z,28.86
2023-01-07T03:59:30.504Z,28.88
2023-01-07T04:02:01.347Z,28.90
2023-01-07T04:04:33.876Z,28.91
2023-01-07T04:07:04.829Z,28.94
2023-01-07T04:09:35.701Z,28.95
2023-01-07T04:12:06.871Z,28.96
2023-01-07T04:14:37.700Z,28.98
2023-01-07T04:17:08.367Z,29.01
2023-01-07T04:19:40.214Z,29.03
2023-01-07T04:22:14.052Z,29.06
2023-01-07T04:24:45.951Z,29.09
2023-01-07T04:27:18.144Z,29.10
2023-01-07T04:29:49.301Z,29.13
2023-01-07T04:32:20.788Z,29.15
2023-01-07T04:34:51.419Z,29.16
2023-01-07T04:37:23.741Z,29.18
2023-01-07T04:39:55.142Z,29.21
2023-01-07T04:42:26.285Z,29.22
2023-01-07T04:44:57.812Z,29.21
2023-01-07T04:47:28.609Z,29.25
2023-01-07T04:49:59.959Z,29.26
2023-01-07T04:52:34.702Z,29.40
2023-01-07T04:55:05.888Z,29.39
2023-01-07T04:57:36.668Z,29.30
2023-01-07T05:00:08.287Z,29.23
2023-01-07T05:02:39.780Z,29.20
2023-01-07T05:05:12.809Z,29.16
2023-01-07T05:07:44.274Z,29.18
2023-01-07T05:10:15.554Z,29.16
2023-01-07T05:12:47.207Z,29.17
2023-01-07T05:15:20.243Z,29.17
2023-01-07T05:17:51.319Z,29.18
2023-01-07T05:20:22.003Z,29.14
2023-01-07T05:22:52.839Z,29.17
2023-01-07T05:25:23.719Z,29.20
2023-01-07T05:27:54.797Z,29.18
2023-01-07T05:30:27.764Z,29.23
2023-01-07T05:32:59.773Z,29.23
2023-01-07T05:35:30.523Z,29.22
2023-01-07T05:38:02.019Z,29.23
2023-01-07T05:40:33.225Z,29.28
2023-01-07T05:43:03.958Z,29.23
2023-01-07T05:45:35.666Z,29.30
2023-01-07T05:48:06.502Z,29.30
2023-01-07T05:50:37.585Z,29.31
2023-01-07T05:53:08.484Z,29.32
2023-01-07T05:55:42.058Z,29.30
2023-01-07T05:58:12.794Z,29.30
2023-01-07T06:00:43.523Z,29.38
2023-01-07T06:03:14.312Z,29.37
2023-01-07T06:05:45.410Z,29.40
2023-01-07T06:08:16.486Z,29.41
2023-01-07T06:10:47.681Z,29.42
2023-01-07T06:13:18.335Z,29.46
2023-01-07T06:15:49.438Z,29.46
2023-01-07T06:18:20.187Z,29.46
2023-01-07T06:20:52.505Z,29.46
2023-01-07T06:23:23.199Z,29.45
2023-01-07T06:25:53.900Z,29.44
2023-01-07T06:28:24.524Z,29.44
2023-01-07T06:30:55.301Z,29.48
2023-01-07T06:33:25.957Z,29.48
2023-01-07T06:35:56.780Z,29.46
2023-01-07T06:38:27.844Z,29.46
2023-01-07T06:41:00.351Z,29.47
2023-01-07T06:43:31.941Z,29.44
2023-01-07T06:46:02.847Z,29.48
2023-01-07T06:48:34.280Z,29.46
2023-01-07T06:51:05.387Z,29.50
2023-01-07T06:53:36.055Z,29.48
2023-01-07T06:56:06.964Z,29.52
2023-01-07T06:58:37.694Z,29.48
2023-01-07T07:01:09.549Z,29.50
2023-01-07T07:03:40.838Z,29.53
2023-01-07T07:06:12.103Z,29.55
2023-01-07T07:08:42.685Z,29.62
2023-01-07T07:11:13.877Z,29.62
2023-01-07T07:13:44.577Z,29.62
2023-01-07T07:16:15.789Z,29.66
2023-01-07T07:18:46.521Z,29.66
2023-01-07T07:21:17.366Z,29.66
2023-01-07T07:23:48.320Z,29.65
2023-01-07T07:26:22.527Z,29.63
2023-01-07T07:29:02.264Z,29.66
2023-01-07T07:31:33.495Z,29.66
2023-01-07T07:34:04.418Z,29.65
2023-01-07T07:36:35.717Z,29.63
2023-01-07T07:39:06.969Z,29.63
2023-01-07T07:41:37.721Z,29.59
2023-01-07T07:44:12.182Z,29.60
2023-01-07T07:46:42.915Z,29.63
2023-01-07T07:49:14.401Z,29.64
2023-01-07T07:51:45.289Z,29.65
2023-01-07T07:54:16.711Z,29.64
2023-01-07T07:56:47.358Z,29.66
2023-01-07T07:59:18.110Z,29.67
2023-01-07T08:01:49.003Z,29.67
2023-01-07T08:04:20.008Z,29.65
2023-01-07T08:06:50.633Z,29.53
2023-01-07T08:09:21.381Z,29.62
2023-01-07T08:11:51.998Z,29.61
2023-01-07T08:14:22.879Z,29.63
2023-01-07T08:16:53.516Z,29.66
2023-01-07T08:19:24.217Z,29.67
2023-01-07T08:21:54.898Z,29.69
2023-01-07T08:24:26.129Z,29.72
2023-01-07T08:26:57.328Z,29.74
2023-01-07T08:29:28.444Z,29.74
2023-01-07T08:31:59.485Z,29.77
2023-01-07T08:34:31.029Z,29.68
2023-01-07T08:37:01.954Z,29.71
2023-01-07T08:39:32.673Z,29.75
2023-01-07T08:42:03.637Z,29.79
2023-01-07T08:44:36.081Z,29.82
2023-01-07T08:47:06.976Z,29.87
2023-01-07T08:49:37.652Z,29.90
2023-01-07T08:52:08.690Z,29.88
2023-01-07T08:54:39.864Z,29.93
2023-01-07T08:57:10.972Z,29.95
2023-01-07T08:59:42.540Z,29.96
2023-01-07T09:02:17.717Z,29.97
2023-01-07T09:04:48.407Z,29.98
2023-01-07T09:07:19.148Z,29.98
2023-01-07T09:09:49.757Z,29.97
2023-01-07T09:12:20.551Z,29.99
2023-01-07T09:14:51.377Z,29.99
2023-01-07T09:17:24.096Z,29.98
2023-01-07T09:19:54.802Z,29.99
2023-01-07T09:22:25.634Z,29.98
2023-01-07T09:24:56.459Z,29.99
2023-01-07T09:27:28.335Z,29.99
2023-01-07T09:30:00.311Z,29.98
2023-01-07T09:32:31.500Z,29.99
2023-01-07T09:35:02.837Z,29.99
2023-01-07T09:37:33.564Z,29.98
2023-01-07T09:40:05.148Z,29.98
2023-01-07T09:42:50.034Z,29.98
2023-01-07T09:45:32.941Z,29.96
2023-01-07T09:48:06.671Z,29.95
2023-01-07T09:50:47.867Z,29.94
2023-01-07T09:53:24.699Z,29.94
2023-01-07T09:56:11.583Z,29.94
2023-01-07T09:58:46.917Z,29.93
2023-01-07T10:01:32.861Z,29.92
2023-01-07T10:04:09.569Z,29.91
2023-01-07T10:06:47.029Z,29.90
2023-01-07T10:09:40.754Z,29.90
2023-01-07T10:12:29.385Z,29.89
2023-01-07T10:15:09.650Z,29.89
2023-01-07T10:17:55.968Z,29.88
2023-01-07T10:20:29.790Z,29.87
2023-01-07T10:23:05.316Z,29.83
2023-01-07T10:25:44.512Z,29.85
2023-01-07T10:28:20.458Z,29.83
2023-01-07T10:30:55.264Z,29.82
2023-01-07T10:33:32.319Z,29.80
2023-01-07T10:36:03.630Z,29.80
2023-01-07T10:38:36.912Z,29.80
2023-01-07T10:41:16.130Z,29.78
2023-01-07T10:44:07.710Z,29.78
2023-01-07T10:46:59.073Z,29.76
2023-01-07T10:49:47.885Z,29.76
2023-01-07T10:52:21.429Z,29.75
2023-01-07T10:55:01.349Z,29.74
2023-01-07T10:57:33.420Z,29.73
2023-01-07T11:00:07.651Z,29.71
2023-01-07T11:02:39.755Z,29.69
2023-01-07T11:05:14.156Z,29.70
2023-01-07T11:07:51.937Z,29.70
2023-01-07T11:10:27.240Z,29.69
2023-01-07T11:13:03.789Z,29.69
2023-01-07T11:15:37.892Z,29.68
2023-01-07T11:18:34.888Z,29.67
2023-01-07T11:21:05.754Z,29.64
2023-01-07T11:23:44.182Z,29.66
2023-01-07T11:26:19.831Z,29.65
2023-01-07T11:28:58.225Z,29.63
2023-01-07T11:31:47.027Z,29.62
2023-01-07T11:34:37.685Z,29.61
2023-01-07T11:37:08.457Z,29.60
2023-01-07T11:39:39.630Z,29.60
2023-01-07T11:42:38.695Z,29.59
2023-01-07T11:45:15.539Z,29.59
2023-01-07T11:48:03.831Z,29.57
2023-01-07T11:50:45.140Z,29.59
2023-01-07T11:53:15.945Z,29.58
2023-01-07T11:56:03.301Z,29.57
2023-01-07T11:58:41.692Z,29.57
2023-01-07T12:01:12.594Z,29.56
2023-01-07T12:03:55.304Z,29.56
2023-01-07T12:06:37.202Z,29.56
2023-01-07T12:09:25.743Z,29.55
2023-01-07T12:11:58.683Z,29.56
2023-01-07T12:14:33.025Z,29.53
2023-01-07T12:17:12.523Z,29.53
2023-01-07T12:20:02.091Z,29.51
2023-01-07T12:22:36.275Z,29.52
2023-01-07T12:25:22.738Z,29.52
2023-01-07T12:28:02.113Z,29.50
2023-01-07T12:30:56.144Z,29.51
2023-01-07T12:33:34.108Z,29.49
2023-01-07T12:36:07.573Z,29.49
2023-01-07T12:38:45.966Z,29.48
2023-01-07T12:41:22.269Z,29.47
2023-01-07T12:43:58.912Z,29.47
2023-01-07T12:46:32.805Z,29.47
2023-01-07T12:49:06.832Z,29.49
2023-01-07T12:51:42.081Z,29.50
2023-01-07T12:54:19.740Z,29.51
2023-01-07T12:56:55.600Z,29.55
2023-01-07T12:59:45.883Z,29.55
2023-01-07T13:02:34.955Z,29.58
2023-01-07T13:05:06.923Z,29.56
2023-01-07T13:07:42.412Z,29.59
2023-01-07T13:10:21.211Z,29.56
2023-01-07T13:12:54.195Z,29.58
2023-01-07T13:15:29.255Z,29.59
2023-01-07T13:18:01.514Z,29.60
2023-01-07T13:20:38.409Z,29.60
2023-01-07T13:23:14.731Z,29.60
2023-01-07T13:26:04.141Z,29.59
2023-01-07T13:28:53.311Z,29.59
2023-01-07T13:31:24.727Z,29.59
2023-01-07T13:33:56.111Z,29.57
2023-01-07T13:36:27.662Z,29.59
2023-01-07T13:38:58.710Z,29.54
2023-01-07T13:41:48.744Z,29.59
2023-01-07T13:44:19.786Z,29.57
2023-01-07T13:46:50.860Z,29.57
2023-01-07T13:49:28.310Z,29.42
2023-01-07T13:52:13.238Z,29.18
2023-01-07T13:54:50.171Z,28.90
2023-01-07T13:57:40.825Z,28.69
2023-01-07T14:00:29.694Z,28.56
2023-01-07T14:03:00.917Z,28.39
2023-01-07T14:05:35.511Z,28.29
2023-01-07T14:08:06.559Z,28.23
2023-01-07T14:10:38.810Z,28.13
2023-01-07T14:13:20.917Z,28.05
2023-01-07T14:16:03.742Z,28.00
2023-01-07T14:18:53.286Z,27.92
2023-01-07T14:21:33.306Z,27.91
2023-01-07T14:24:18.817Z,27.88
2023-01-07T14:26:59.040Z,27.88
2023-01-07T14:29:49.715Z,27.88
2023-01-07T14:32:29.573Z,27.88
2023-01-07T14:35:03.202Z,27.87
2023-01-07T14:37:35.953Z,27.86
2023-01-07T14:40:25.008Z,27.86
2023-01-07T14:42:56.087Z,27.84
2023-01-07T14:45:39.617Z,27.75
2023-01-07T14:48:10.296Z,27.74
2023-01-07T14:50:41.319Z,27.67
2023-01-07T14:53:14.911Z,27.62
2023-01-07T14:55:53.153Z,27.57
2023-01-07T14:58:24.261Z,27.46
2023-01-07T15:01:05.749Z,27.42
2023-01-07T15:03:59.626Z,27.33
2023-01-07T15:06:37.581Z,27.29
2023-01-07T15:09:30.884Z,27.27
2023-01-07T15:12:22.031Z,27.22
2023-01-07T15:15:22.718Z,27.12
2023-01-07T15:17:53.957Z,27.10
2023-01-07T15:20:29.368Z,27.03
2023-01-07T15:23:06.655Z,27.06
2023-01-07T15:25:43.890Z,27.10
2023-01-07T15:28:20.713Z,27.05
2023-01-07T15:31:14.598Z,27.05
2023-01-07T15:33:48.640Z,27.09
2023-01-07T15:36:19.697Z,27.07
2023-01-07T15:38:50.956Z,26.99
2023-01-07T15:41:27.945Z,27.01
2023-01-07T15:44:00.350Z,26.92
2023-01-07T15:46:32.729Z,26.91
2023-01-07T15:49:07.280Z,26.91
2023-01-07T15:51:40.026Z,26.95
2023-01-07T15:54:32.275Z,26.98
2023-01-07T15:57:11.937Z,27.04
2023-01-07T15:59:48.057Z,27.08
2023-01-07T16:02:30.803Z,27.15
2023-01-07T16:05:03.040Z,27.22
2023-01-07T16:07:34.442Z,27.17
2023-01-07T16:10:05.731Z,27.16
2023-01-07T16:12:38.370Z,27.09
2023-01-07T16:15:29.337Z,27.07
2023-01-07T16:18:17.180Z,27.05
2023-01-07T16:20:53.981Z,27.02
2023-01-07T16:23:26.707Z,26.98
2023-01-07T16:26:00.321Z,26.96
2023-01-07T16:28:39.543Z,27.01
2023-01-07T16:31:12.641Z,27.06
2023-01-07T16:33:44.850Z,27.10
2023-01-07T16:36:16.373Z,27.15
2023-01-07T16:38:49.211Z,27.17
2023-01-07T16:41:23.448Z,27.21
2023-01-07T16:43:56.636Z,27.15
2023-01-07T16:46:30.852Z,27.10
2023-01-07T16:49:28.795Z,27.08
2023-01-07T16:52:14.692Z,27.02
2023-01-07T16:54:46.589Z,26.96
2023-01-07T16:57:17.477Z,26.96
2023-01-07T16:59:53.484Z,27.01
2023-01-07T17:02:33.276Z,27.05
2023-01-07T17:05:18.555Z,27.10
2023-01-07T17:07:55.498Z,27.12
2023-01-07T17:10:34.164Z,27.14
2023-01-07T17:13:09.866Z,27.20
2023-01-07T17:15:41.412Z,27.15
2023-01-07T17:18:15.868Z,27.08
2023-01-07T17:20:48.845Z,27.02
2023-01-07T17:23:28.907Z,26.96
2023-01-07T17:26:02.635Z,26.94
2023-01-07T17:28:35.025Z,26.97
2023-01-07T17:31:05.964Z,27.00
2023-01-07T17:33:38.585Z,27.04
2023-01-07T17:36:16.417Z,27.06
2023-01-07T17:38:48.245Z,27.13
2023-01-07T17:41:38.373Z,27.15
2023-01-07T17:44:10.744Z,27.10
2023-01-07T17:46:41.605Z,27.05
2023-01-07T17:49:13.134Z,26.99
2023-01-07T17:51:46.476Z,26.93
2023-01-07T17:54:22.505Z,26.94
2023-01-07T17:56:53.974Z,26.97
2023-01-07T17:59:25.660Z,27.01
2023-01-07T18:01:58.095Z,27.03
2023-01-07T18:04:29.467Z,27.07
2023-01-07T18:07:00.134Z,27.09
2023-01-07T18:09:31.712Z,27.15
2023-01-07T18:12:20.496Z,27.10
2023-01-07T18:14:51.121Z,27.06
2023-01-07T18:17:21.821Z,27.01
2023-01-07T18:19:52.568Z,26.92
2023-01-07T18:22:24.250Z,26.89
2023-01-07T18:24:54.872Z,26.92
2023-01-07T18:27:25.688Z,26.94
2023-01-07T18:29:57.152Z,26.98
2023-01-07T18:32:27.839Z,27.00
2023-01-07T18:34:58.719Z,27.03
2023-01-07T18:37:29.502Z,27.06
2023-01-07T18:40:03.993Z,27.12
2023-01-07T18:42:35.992Z,27.06
2023-01-07T18:45:07.457Z,27.02
2023-01-07T18:47:38.785Z,26.95
2023-01-07T18:50:10.507Z,26.88
2023-01-07T18:52:41.976Z,26.86
2023-01-07T18:55:12.971Z,26.88
2023-01-07T18:57:43.698Z,26.91
2023-01-07T19:00:14.642Z,26.94
2023-01-07T19:02:45.392Z,26.96
2023-01-07T19:05:16.049Z,26.99
2023-01-07T19:07:47.326Z,27.02
2023-01-07T19:10:18.986Z,27.04
2023-01-07T19:12:49.807Z,27.07
2023-01-07T19:15:20.945Z,27.10
2023-01-07T19:20:40.648Z,26.95
2023-01-07T19:23:11.389Z,26.85
2023-01-07T19:25:41.966Z,26.85
2023-01-07T19:28:12.845Z,26.86
2023-01-07T19:30:43.530Z,26.88
2023-01-07T19:33:14.229Z,26.90
2023-01-07T19:35:44.841Z,26.91
2023-01-07T19:38:15.782Z,26.93
2023-01-07T19:40:46.687Z,26.94
2023-01-07T19:43:17.954Z,26.98
2023-01-07T19:45:58.938Z,27.01
2023-01-07T19:48:30.066Z,27.02
2023-01-07T19:51:03.003Z,27.00
2023-01-07T19:53:34.745Z,26.93
2023-01-07T19:56:10.042Z,26.87
2023-01-07T19:58:41.200Z,26.86
2023-01-07T20:01:17.387Z,26.87
2023-01-07T20:03:48.465Z,26.88
2023-01-07T20:06:20.568Z,26.89
2023-01-07T20:08:53.762Z,26.91
2023-01-07T20:11:25.949Z,26.92
2023-01-07T20:13:56.568Z,26.93
2023-01-07T20:16:29.292Z,26.99
2023-01-07T20:19:00.521Z,26.97
2023-01-07T20:21:31.565Z,26.95
2023-01-07T20:24:02.201Z,26.84
2023-01-07T20:26:34.259Z,26.81
2023-01-07T20:29:04.913Z,26.80
2023-01-07T20:31:35.839Z,26.78
2023-01-07T20:34:06.643Z,26.82
2023-01-07T20:36:37.551Z,26.85
2023-01-07T20:39:08.546Z,26.82
2023-01-07T20:41:40.288Z,26.84
2023-01-07T20:44:13.280Z,26.83
2023-01-07T20:46:44.365Z,26.88
2023-01-07T20:49:15.181Z,26.94
2023-01-07T20:51:46.460Z,26.93
2023-01-07T20:54:17.086Z,26.87
2023-01-07T20:56:47.822Z,26.82
2023-01-07T20:59:18.765Z,26.79
2023-01-07T21:01:49.987Z,26.80
2023-01-07T21:04:20.873Z,26.78
2023-01-07T21:06:51.609Z,26.83
2023-01-07T21:09:22.609Z,26.85
2023-01-07T21:11:53.287Z,26.85
2023-01-07T21:14:23.942Z,26.83
2023-01-07T21:16:54.830Z,26.85
2023-01-07T21:19:25.492Z,26.90
2023-01-07T21:21:56.470Z,26.94
2023-01-07T21:24:27.645Z,26.91
2023-01-07T21:26:58.908Z,26.84
2023-01-07T21:29:29.584Z,26.78
2023-01-07T21:32:02.333Z,26.78
2023-01-07T21:34:33.124Z,26.74
2023-01-07T21:37:03.822Z,26.79
2023-01-07T21:39:34.461Z,26.79
2023-01-07T21:42:05.274Z,26.80
2023-01-07T21:44:35.905Z,26.80
2023-01-07T21:47:06.631Z,26.81
2023-01-07T21:49:37.264Z,26.83
2023-01-07T21:52:08.027Z,26.86
2023-01-07T21:54:38.847Z,26.90
2023-01-07T21:57:09.692Z,26.87
2023-01-07T21:59:40.692Z,26.80
2023-01-07T22:02:12.525Z,26.76
2023-01-07T22:04:43.761Z,26.73
2023-01-07T22:07:17.853Z,26.73
2023-01-07T22:09:48.802Z,26.74
2023-01-07T22:12:19.585Z,26.73
2023-01-07T22:14:50.286Z,26.34
2023-01-07T22:17:21.585Z,26.76
2023-01-07T22:19:52.649Z,26.74
2023-01-07T22:22:23.573Z,26.78
2023-01-07T22:24:54.442Z,26.81
2023-01-07T22:27:24.993Z,26.85
2023-01-07T22:29:56.642Z,26.85
2023-01-07T22:32:27.221Z,26.79
2023-01-07T22:34:57.897Z,26.73
2023-01-07T22:37:28.447Z,26.71
2023-01-07T22:40:01.909Z,26.70
2023-01-07T22:42:36.486Z,26.71
2023-01-07T22:45:10.700Z,26.71
2023-01-07T22:47:44.673Z,26.72
2023-01-07T22:50:16.129Z,26.71
2023-01-07T22:52:47.378Z,26.73
2023-01-07T22:55:18.526Z,26.72
2023-01-07T22:57:49.612Z,26.77
2023-01-07T23:00:38.623Z,26.83
2023-01-07T23:03:09.502Z,26.80
2023-01-07T23:05:41.307Z,26.70
2023-01-07T23:08:12.360Z,26.60
2023-01-07T23:10:46.835Z,26.54
2023-01-07T23:13:17.580Z,26.55
2023-01-07T23:15:48.195Z,26.55
2023-01-07T23:18:19.450Z,26.56
2023-01-07T23:20:50.208Z,26.62
2023-01-07T23:23:21.217Z,26.62
2023-01-07T23:25:52.936Z,26.64
2023-01-07T23:28:23.650Z,26.69
2023-01-07T23:30:54.344Z,26.71
2023-01-07T23:33:25.051Z,26.72
2023-01-07T23:36:02.657Z,26.73
2023-01-07T23:38:33.370Z,26.81
2023-01-07T23:41:05.172Z,26.83
2023-01-07T23:43:36.645Z,26.85
2023-01-07T23:46:08.788Z,26.85
2023-01-07T23:48:40.063Z,26.90
2023-01-07T23:51:12.372Z,26.81
2023-01-07T23:53:46.505Z,26.69
2023-01-07T23:56:25.444Z,26.57
2023-01-07T23:58:56.200Z,26.46
